Time;durP1;ratioP1;P1;durP2;ratioP2;P2;SDS_P1;SDS_P2;PMS_P1;PMS_P2;Temp;Humidity;BMP_temperature;BMP_pressure;BME280_temperature;BME280_humidity;BME280_pressure;Samples;Min_cycle;Max_cycle;Signal;HPM_P1;HPM_P2
2020/12/11 00:01:01;;;;;;;30.27;18.88;;;2.60;99.90;;;;;;5033443;28;20029;-79
2020/12/11 00:03:27;;;;;;;28.42;18.10;;;2.60;99.90;;;;;;5034881;28;20022;-79
2020/12/11 00:05:53;;;;;;;30.02;18.52;;;2.60;99.90;;;;;;5034572;28;20029;-79
2020/12/11 00:08:21;;;;;;;26.50;16.77;;;2.60;99.90;;;;;;5035262;28;20037;-79
2020/12/11 00:10:49;;;;;;;27.23;16.95;;;2.60;99.90;;;;;;5034301;28;20033;-79
2020/12/11 00:13:17;;;;;;;28.63;17.75;;;2.60;99.90;;;;;;5030758;28;20140;-79
2020/12/11 00:15:44;;;;;;;29.90;19.55;;;2.60;99.90;;;;;;5027365;28;20075;-79
2020/12/11 00:18:12;;;;;;;30.83;18.90;;;2.60;99.90;;;;;;5032493;28;20082;-79
2020/12/11 00:20:40;;;;;;;30.55;19.30;;;2.60;99.90;;;;;;5034569;28;20386;-79
2020/12/11 00:23:07;;;;;;;32.13;20.35;;;2.50;99.90;;;;;;5034076;28;20032;-79
2020/12/11 00:25:35;;;;;;;31.35;19.75;;;2.50;99.90;;;;;;5039407;28;20159;-79
2020/12/11 00:28:03;;;;;;;29.80;18.63;;;2.50;99.90;;;;;;5035075;28;20025;-79
2020/12/11 00:30:29;;;;;;;27.38;17.38;;;2.50;99.90;;;;;;5036710;28;20509;-79
2020/12/11 00:32:57;;;;;;;28.05;17.48;;;2.50;99.90;;;;;;5033927;28;20045;-79
2020/12/11 00:35:23;;;;;;;27.40;17.75;;;2.50;99.90;;;;;;5034129;28;20072;-79
2020/12/11 00:37:55;;;;;;;28.17;18.60;;;2.60;99.90;;;;;;5033342;28;20525;-79
2020/12/11 00:40:21;;;;;;;;;;;2.60;99.90;;;;;;5029559;28;20039;-79
2020/12/11 00:42:46;;;;;;;27.80;17.90;;;2.60;99.90;;;;;;5031983;28;19913;-79
2020/12/11 00:45:12;;;;;;;27.27;17.63;;;2.60;99.90;;;;;;5033574;28;20029;-79
2020/12/11 00:47:38;;;;;;;25.52;16.98;;;2.60;99.90;;;;;;5030733;28;20037;-79
2020/12/11 00:50:03;;;;;;;26.77;17.65;;;2.60;99.90;;;;;;5028955;28;20025;-79
2020/12/11 00:52:34;;;;;;;28.08;18.05;;;2.60;99.90;;;;;;5027447;28;20021;-79
2020/12/11 00:55:02;;;;;;;27.80;17.92;;;2.60;99.90;;;;;;5029801;28;20030;-79
2020/12/11 00:57:27;;;;;;;28.23;18.70;;;2.60;99.90;;;;;;5030124;28;20104;-79
2020/12/11 00:59:58;;;;;;;27.73;18.63;;;2.60;99.90;;;;;;5026980;28;20128;-79
2020/12/11 01:02:26;;;;;;;27.92;18.40;;;2.60;99.90;;;;;;5033551;28;20106;-79
2020/12/11 01:04:54;;;;;;;27.00;17.95;;;2.60;99.90;;;;;;5029332;28;20032;-79
2020/12/11 01:07:22;;;;;;;27.92;18.08;;;2.60;99.90;;;;;;5029590;28;20089;-79
2020/12/11 01:09:47;;;;;;;25.90;16.85;;;2.60;99.90;;;;;;5029766;28;20514;-80
2020/12/11 01:12:15;;;;;;;26.30;17.30;;;2.60;99.90;;;;;;5029965;28;20057;-79
2020/12/11 01:14:43;;;;;;;28.77;18.20;;;2.60;99.90;;;;;;5030267;28;20025;-79
2020/12/11 01:17:09;;;;;;;29.38;18.48;;;2.50;99.90;;;;;;5027493;28;20041;-79
2020/12/11 01:19:37;;;;;;;28.23;18.58;;;2.60;99.90;;;;;;5037585;28;20025;-79
2020/12/11 01:22:04;;;;;;;27.75;18.02;;;2.50;99.90;;;;;;5022130;28;20025;-79
2020/12/11 01:24:33;;;;;;;27.85;18.27;;;2.40;99.90;;;;;;5028402;28;20025;-79
2020/12/11 01:27:01;;;;;;;24.90;16.55;;;2.40;99.90;;;;;;5030381;28;20501;-79
2020/12/11 01:29:29;;;;;;;27.95;18.40;;;2.40;99.90;;;;;;5028866;28;20489;-79
2020/12/11 01:32:00;;;;;;;26.92;18.15;;;2.40;99.90;;;;;;5030228;28;20036;-79
2020/12/11 01:34:28;;;;;;;29.42;19.15;;;2.40;99.90;;;;;;5000035;28;774718;-80
2020/12/11 01:37:01;;;;;;;26.83;17.80;;;2.30;99.90;;;;;;5032696;28;20101;-79
2020/12/11 01:39:26;;;;;;;25.60;17.35;;;2.30;99.90;;;;;;5032080;28;20028;-80
2020/12/11 01:41:52;;;;;;;27.13;18.15;;;2.40;99.90;;;;;;5033153;28;20029;-80
2020/12/11 01:44:20;;;;;;;28.38;19.02;;;2.40;99.90;;;;;;5030926;28;20033;-79
2020/12/11 01:46:49;;;;;;;27.30;17.98;;;2.40;99.90;;;;;;5034421;28;20464;-79
2020/12/11 01:49:17;;;;;;;26.58;18.48;;;2.40;99.90;;;;;;5032070;28;20362;-79
2020/12/11 01:51:44;;;;;;;27.23;18.70;;;2.40;99.90;;;;;;5033944;28;20040;-79
2020/12/11 01:54:12;;;;;;;25.20;17.75;;;2.40;99.90;;;;;;5036396;28;20514;-79
2020/12/11 01:56:46;;;;;;;26.98;19.10;;;2.40;99.90;;;;;;5030848;28;20034;-79
2020/12/11 01:59:19;;;;;;;28.75;18.42;;;2.50;99.90;;;;;;5034580;28;20462;-79
2020/12/11 02:01:47;;;;;;;27.38;17.88;;;2.40;99.90;;;;;;5031878;28;20028;-79
2020/12/11 02:04:13;;;;;;;24.23;16.23;;;2.50;99.90;;;;;;5029592;28;20034;-79
2020/12/11 02:06:39;;;;;;;26.27;17.50;;;2.50;99.90;;;;;;5034326;28;20017;-79
2020/12/11 02:09:05;;;;;;;26.67;18.55;;;2.50;99.90;;;;;;5018584;28;20045;-79
2020/12/11 02:11:35;;;;;;;26.15;18.27;;;2.50;99.90;;;;;;5032869;28;20038;-79
2020/12/11 02:14:01;;;;;;;22.92;16.02;;;2.50;99.90;;;;;;5033018;28;20032;-79
2020/12/11 02:16:29;;;;;;;24.85;16.83;;;2.50;99.90;;;;;;5030647;28;20362;-79
2020/12/11 02:18:54;;;;;;;24.90;17.65;;;2.60;99.90;;;;;;5031166;28;20040;-79
2020/12/11 02:21:22;;;;;;;25.70;17.67;;;2.60;99.90;;;;;;5031929;28;20025;-79
2020/12/11 02:23:48;;;;;;;24.48;17.35;;;2.50;99.90;;;;;;5032658;28;20051;-79
2020/12/11 02:26:14;;;;;;;24.63;16.15;;;2.50;99.90;;;;;;5032219;28;20112;-79
2020/12/11 02:28:39;;;;;;;22.90;15.70;;;2.50;99.90;;;;;;5016347;28;20038;-79
2020/12/11 02:31:05;;;;;;;22.92;16.25;;;2.50;99.90;;;;;;5035660;28;20029;-79
2020/12/11 02:33:31;;;;;;;22.35;15.98;;;2.60;99.90;;;;;;5028741;28;20050;-79
2020/12/11 02:35:57;;;;;;;26.70;18.13;;;2.60;99.90;;;;;;5043507;28;20025;-79
2020/12/11 02:38:23;;;;;;;23.40;16.83;;;2.60;99.90;;;;;;5035788;28;20037;-79
2020/12/11 02:41:01;;;;;;;25.13;17.05;;;2.60;99.90;;;;;;5030871;28;20036;-79
2020/12/11 02:43:27;;;;;;;24.27;16.40;;;2.50;99.90;;;;;;5030800;28;20072;-79
2020/12/11 02:45:55;;;;;;;25.33;17.73;;;2.50;99.90;;;;;;5034634;28;20079;-79
2020/12/11 02:48:20;;;;;;;28.00;18.27;;;2.50;99.90;;;;;;5016772;28;20096;-79
2020/12/11 02:50:49;;;;;;;23.50;17.20;;;2.50;99.90;;;;;;5009556;28;20037;-79
2020/12/11 02:53:19;;;;;;;25.10;17.90;;;2.50;99.90;;;;;;5014316;28;20041;-79
2020/12/11 02:55:45;;;;;;;23.23;16.45;;;2.50;99.90;;;;;;5013835;28;20041;-79
2020/12/11 02:58:10;;;;;;;24.17;17.27;;;2.50;99.90;;;;;;5013851;28;20077;-80
2020/12/11 03:00:40;;;;;;;21.20;14.85;;;2.50;99.90;;;;;;5013758;28;20040;-79
2020/12/11 03:03:10;;;;;;;24.35;17.58;;;2.50;99.90;;;;;;5014347;28;20029;-79
2020/12/11 03:05:41;;;;;;;24.25;16.75;;;2.50;99.90;;;;;;5013855;28;20045;-79
2020/12/11 03:08:10;;;;;;;24.35;17.55;;;2.60;99.90;;;;;;5014905;28;20140;-79
2020/12/11 03:10:40;;;;;;;25.05;17.35;;;2.60;99.90;;;;;;5014624;28;20033;-79
2020/12/11 03:13:07;;;;;;;23.38;16.20;;;2.50;99.90;;;;;;5013945;28;20576;-79
2020/12/11 03:15:33;;;;;;;24.60;17.05;;;2.50;99.90;;;;;;5013987;28;20042;-78
2020/12/11 03:18:01;;;;;;;22.65;15.65;;;2.50;99.90;;;;;;5013788;28;20099;-79
2020/12/11 03:20:29;;;;;;;26.75;18.35;;;2.50;99.90;;;;;;5015027;28;20576;-79
2020/12/11 03:22:57;;;;;;;27.75;18.63;;;2.50;99.90;;;;;;5013755;28;20034;-79
2020/12/11 03:25:25;;;;;;;20.50;15.52;;;2.50;99.90;;;;;;5014398;28;20051;-79
2020/12/11 03:27:52;;;;;;;24.17;16.55;;;2.50;99.90;;;;;;5014575;28;20126;-79
2020/12/11 03:30:18;;;;;;;23.70;16.75;;;2.50;99.90;;;;;;5031713;28;20034;-79
2020/12/11 03:32:44;;;;;;;25.35;18.27;;;2.50;99.90;;;;;;5025755;28;20705;-79
2020/12/11 03:35:16;;;;;;;22.63;16.50;;;2.50;99.90;;;;;;5013039;28;20460;-79
2020/12/11 03:37:44;;;;;;;23.40;16.63;;;2.50;99.90;;;;;;5015169;28;20034;-80
2020/12/11 03:40:10;;;;;;;24.88;18.23;;;2.50;99.90;;;;;;5013951;28;20099;-79
2020/12/11 03:42:36;;;;;;;23.20;16.80;;;2.40;99.90;;;;;;5012972;28;20037;-78
2020/12/11 03:45:02;;;;;;;24.25;17.58;;;2.40;99.90;;;;;;5028238;28;20052;-79
2020/12/11 03:47:34;;;;;;;22.30;16.58;;;2.50;99.90;;;;;;5018562;28;20072;-79
2020/12/11 03:50:04;;;;;;;17.73;12.53;;;2.50;99.90;;;;;;5050541;28;20045;-79
2020/12/11 03:52:32;;;;;;;22.50;15.98;;;2.50;99.90;;;;;;5016014;28;20056;-79
2020/12/11 03:55:00;;;;;;;21.63;15.75;;;2.50;99.90;;;;;;5014360;28;20051;-79
2020/12/11 03:57:28;;;;;;;23.73;16.77;;;2.50;99.90;;;;;;5025854;28;20033;-79
2020/12/11 03:59:54;;;;;;;20.98;15.35;;;2.50;99.90;;;;;;5024993;28;20029;-79
2020/12/11 04:02:22;;;;;;;19.73;14.75;;;2.50;99.90;;;;;;5013798;28;20105;-79
2020/12/11 04:04:53;;;;;;;20.83;14.95;;;2.50;99.90;;;;;;5013763;28;20127;-79
2020/12/11 04:07:21;;;;;;;20.30;15.05;;;2.50;99.90;;;;;;5012886;28;20048;-79
2020/12/11 04:09:47;;;;;;;20.27;14.73;;;2.50;99.90;;;;;;5013449;28;20099;-79
2020/12/11 04:12:15;;;;;;;18.85;14.50;;;2.60;99.90;;;;;;5014057;28;20041;-79
2020/12/11 04:14:43;;;;;;;21.05;15.25;;;2.50;99.90;;;;;;5014016;28;20034;-79
2020/12/11 04:17:08;;;;;;;21.45;15.57;;;2.50;99.90;;;;;;5016851;28;20269;-79
2020/12/11 04:19:34;;;;;;;21.92;16.23;;;2.50;99.90;;;;;;5017501;28;20038;-79
2020/12/11 04:22:02;;;;;;;20.30;14.95;;;2.50;99.90;;;;;;5017726;28;20080;-79
2020/12/11 04:24:28;;;;;;;19.52;15.25;;;2.40;99.90;;;;;;5017710;28;20108;-79
2020/12/11 04:26:56;;;;;;;20.52;14.18;;;2.40;99.90;;;;;;5017157;28;20025;-79
2020/12/11 04:29:24;;;;;;;21.20;15.32;;;2.50;99.90;;;;;;5017634;28;20037;-79
2020/12/11 04:32:04;;;;;;;18.88;14.05;;;2.50;99.90;;;;;;5016830;28;20037;-79
2020/12/11 04:34:32;;;;;;;19.73;14.15;;;2.50;99.90;;;;;;5017328;28;20034;-79
2020/12/11 04:36:58;;;;;;;19.25;14.60;;;2.50;99.90;;;;;;5016785;28;20036;-79
2020/12/11 04:39:26;;;;;;;19.05;14.40;;;2.50;99.90;;;;;;5024501;28;20018;-79
2020/12/11 04:41:54;;;;;;;18.95;14.45;;;2.50;99.90;;;;;;5016011;28;20033;-79
2020/12/11 04:44:20;;;;;;;17.23;12.55;;;2.50;99.90;;;;;;5014840;28;20026;-78
2020/12/11 04:46:53;;;;;;;19.33;14.20;;;2.60;99.90;;;;;;5017923;28;20600;-79
2020/12/11 04:49:20;;;;;;;19.33;13.52;;;2.60;99.90;;;;;;5019054;28;20030;-80
2020/12/11 04:51:53;;;;;;;21.00;14.65;;;2.60;99.90;;;;;;5015590;28;20035;-79
2020/12/11 04:54:20;;;;;;;21.02;14.82;;;2.60;99.90;;;;;;5016132;28;20116;-79
2020/12/11 04:56:50;;;;;;;20.20;13.90;;;2.60;99.90;;;;;;5015574;28;20687;-79
2020/12/11 04:59:18;;;;;;;21.08;14.60;;;2.50;99.90;;;;;;5033437;28;20434;-79
2020/12/11 05:01:44;;;;;;;19.42;14.10;;;2.60;99.90;;;;;;5035231;28;20087;-79
2020/12/11 05:04:09;;;;;;;20.92;14.30;;;2.60;99.90;;;;;;5022947;28;20033;-79
2020/12/11 05:06:38;;;;;;;23.25;15.13;;;2.50;99.90;;;;;;5031735;28;20033;-78
2020/12/11 05:09:12;;;;;;;22.80;15.13;;;2.50;99.90;;;;;;5022530;28;20641;-79
2020/12/11 05:11:38;;;;;;;20.92;14.85;;;2.50;99.90;;;;;;5017206;28;20041;-78
2020/12/11 05:14:06;;;;;;;24.70;16.77;;;2.50;99.90;;;;;;5037386;28;20078;-79
2020/12/11 05:16:32;;;;;;;21.52;14.75;;;2.50;99.90;;;;;;5033554;28;20115;-79
2020/12/11 05:19:06;;;;;;;23.23;16.15;;;2.50;99.90;;;;;;5017418;28;20379;-78
2020/12/11 05:21:32;;;;;;;23.73;16.17;;;2.60;99.90;;;;;;5017073;28;20037;-79
2020/12/11 05:24:05;;;;;;;20.88;14.98;;;2.60;99.90;;;;;;5016654;28;20041;-78
2020/12/11 05:26:35;;;;;;;20.95;14.63;;;2.60;99.90;;;;;;5016692;28;20029;-79
2020/12/11 05:29:01;;;;;;;21.70;14.60;;;2.60;99.90;;;;;;5001269;28;20059;-79
2020/12/11 05:31:30;;;;;;;21.60;14.45;;;2.60;99.90;;;;;;5015113;28;20029;-79
2020/12/11 05:34:09;;;;;;;22.08;15.25;;;2.60;99.90;;;;;;5014140;28;20396;-79
2020/12/11 05:36:54;;;;;;;21.40;14.75;;;2.70;99.90;;;;;;5015211;28;20116;-79
2020/12/11 05:39:32;;;;;;;24.83;15.85;;;2.60;99.90;;;;;;5017646;28;20040;-79
2020/12/11 05:42:04;;;;;;;24.20;15.77;;;2.60;99.90;;;;;;5020435;28;20055;-79
2020/12/11 05:44:33;;;;;;;22.92;14.88;;;2.60;99.90;;;;;;5033955;28;20132;-79
2020/12/11 05:47:22;;;;;;;23.05;16.05;;;2.60;99.90;;;;;;5019641;28;20033;-79
2020/12/11 05:49:47;;;;;;;21.38;14.95;;;2.60;99.90;;;;;;5016392;28;20025;-79
2020/12/11 05:52:17;;;;;;;25.90;15.93;;;2.70;99.90;;;;;;5015389;28;20481;-79
2020/12/11 05:54:47;;;;;;;25.15;15.98;;;2.60;99.90;;;;;;5016016;28;20523;-79
2020/12/11 05:57:24;;;;;;;22.88;15.38;;;2.70;99.90;;;;;;5013810;28;20036;-79
2020/12/11 05:59:51;;;;;;;20.15;14.43;;;2.70;99.90;;;;;;5013071;28;20095;-79
2020/12/11 06:02:20;;;;;;;21.05;14.15;;;2.70;99.90;;;;;;5016667;28;20041;-79
2020/12/11 06:04:46;;;;;;;22.98;14.93;;;2.70;99.90;;;;;;5016806;28;20041;-79
2020/12/11 06:07:15;;;;;;;22.60;14.98;;;2.70;99.90;;;;;;5015493;28;20048;-79
2020/12/11 06:09:44;;;;;;;21.65;14.45;;;2.70;99.90;;;;;;5016930;28;20517;-78
2020/12/11 06:12:11;;;;;;;20.33;13.20;;;2.70;99.90;;;;;;5015523;28;20486;-79
2020/12/11 06:14:43;;;;;;;23.15;15.18;;;2.70;99.90;;;;;;5015567;28;20463;-78
2020/12/11 06:17:15;;;;;;;23.42;14.50;;;2.70;99.90;;;;;;5035826;28;20026;-78
2020/12/11 06:19:44;;;;;;;21.38;13.85;;;2.70;99.90;;;;;;5031401;28;20056;-79
2020/12/11 06:22:14;;;;;;;21.77;13.88;;;2.70;99.90;;;;;;5030595;28;20112;-79
2020/12/11 06:24:40;;;;;;;22.05;14.52;;;2.80;99.90;;;;;;5057236;28;20063;-79
2020/12/11 06:27:10;;;;;;;23.95;15.50;;;2.70;99.90;;;;;;5020087;28;20053;-79
2020/12/11 06:29:40;;;;;;;21.92;14.93;;;2.70;99.90;;;;;;5029426;28;20028;-79
2020/12/11 06:32:07;;;;;;;21.38;14.32;;;2.70;99.90;;;;;;5005977;28;20056;-79
2020/12/11 06:34:35;;;;;;;21.08;14.05;;;2.70;99.90;;;;;;5024530;28;20032;-79
2020/12/11 06:37:03;;;;;;;26.00;16.63;;;2.70;99.90;;;;;;5017298;28;20044;-79
2020/12/11 06:39:45;;;;;;;24.98;15.65;;;2.70;99.90;;;;;;5027414;28;20528;-79
2020/12/11 06:42:40;;;;;;;22.80;14.48;;;2.70;99.90;;;;;;5031200;28;20529;-79
2020/12/11 06:45:25;;;;;;;21.38;13.60;;;2.70;99.90;;;;;;5019465;28;20022;-79
2020/12/11 06:48:00;;;;;;;22.67;14.45;;;2.70;99.90;;;;;;5005461;28;20475;-79
2020/12/11 06:50:32;;;;;;;25.02;15.32;;;2.70;99.90;;;;;;5015183;28;20034;-79
2020/12/11 06:52:59;;;;;;;30.38;17.95;;;2.70;99.90;;;;;;5027888;28;20560;-79
2020/12/11 06:55:52;;;;;;;30.50;18.35;;;2.70;99.90;;;;;;5014350;28;20037;-79
2020/12/11 06:58:18;;;;;;;24.92;15.88;;;2.70;99.90;;;;;;5014310;28;20033;-79
2020/12/11 07:00:57;;;;;;;25.55;16.02;;;2.60;99.90;;;;;;5018375;28;20021;-79
2020/12/11 07:03:27;;;;;;;25.95;16.45;;;2.60;99.90;;;;;;5030924;28;20041;-79
2020/12/11 07:05:58;;;;;;;25.35;16.25;;;2.60;99.90;;;;;;5019990;28;20048;-79
2020/12/11 07:08:24;;;;;;;27.60;16.55;;;2.60;99.90;;;;;;5013546;28;20049;-79
2020/12/11 07:10:55;;;;;;;28.02;17.65;;;2.60;99.90;;;;;;5008010;28;20108;-79
2020/12/11 07:13:22;;;;;;;29.75;18.38;;;2.60;99.90;;;;;;5014949;28;20037;-79
2020/12/11 07:15:56;;;;;;;26.92;17.40;;;2.60;99.90;;;;;;5015197;28;20026;-80
2020/12/11 07:18:27;;;;;;;32.55;18.92;;;2.60;99.90;;;;;;5012915;28;21475;-79
2020/12/11 07:20:54;;;;;;;30.60;18.67;;;2.60;99.90;;;;;;5014527;28;20030;-80
2020/12/11 07:23:20;;;;;;;28.98;18.27;;;2.60;99.90;;;;;;5015623;28;20479;-79
2020/12/11 07:25:46;;;;;;;28.15;17.45;;;2.60;99.90;;;;;;5034196;28;20164;-79
2020/12/11 07:28:12;;;;;;;27.73;16.75;;;2.60;99.90;;;;;;5027958;28;20067;-79
2020/12/11 07:30:38;;;;;;;29.08;17.85;;;2.60;99.90;;;;;;5025725;28;20085;-79
2020/12/11 07:33:09;;;;;;;29.95;18.48;;;2.70;99.90;;;;;;5029500;28;20045;-78
2020/12/11 07:35:40;;;;;;;27.67;17.20;;;2.70;99.90;;;;;;5029681;28;20029;-79
2020/12/11 07:38:06;;;;;;;27.50;17.08;;;2.70;99.90;;;;;;5045681;28;20032;-79
2020/12/11 07:40:32;;;;;;;25.55;16.92;;;2.70;99.90;;;;;;5030737;28;20378;-79
2020/12/11 07:42:57;;;;;;;28.95;18.23;;;2.70;99.90;;;;;;5028791;28;20040;-79
2020/12/11 07:45:41;;;;;;;28.42;18.13;;;2.70;99.90;;;;;;5033824;28;20110;-79
2020/12/11 07:48:07;;;;;;;27.60;17.70;;;2.70;99.90;;;;;;5035203;28;20032;-79
2020/12/11 07:50:35;;;;;;;31.27;19.27;;;2.70;99.90;;;;;;5011443;28;20033;-79
2020/12/11 07:53:07;;;;;;;32.10;19.73;;;2.70;99.90;;;;;;5031647;28;20029;-79
2020/12/11 07:55:35;;;;;;;28.77;17.67;;;2.80;99.90;;;;;;5021801;28;20088;-79
2020/12/11 07:58:05;;;;;;;28.13;17.85;;;2.80;99.90;;;;;;5038342;28;20362;-79
2020/12/11 08:00:36;;;;;;;30.60;18.92;;;2.80;99.90;;;;;;5032392;28;20025;-79
2020/12/11 08:03:09;;;;;;;30.10;18.77;;;2.80;99.90;;;;;;5032144;28;20087;-79
2020/12/11 08:05:38;;;;;;;34.42;21.25;;;2.80;99.90;;;;;;5034941;28;20160;-79
2020/12/11 08:08:06;;;;;;;32.42;19.30;;;2.80;99.90;;;;;;5028949;28;20033;-79
2020/12/11 08:10:39;;;;;;;30.05;18.20;;;2.80;99.90;;;;;;5022711;28;20445;-79
2020/12/11 08:13:12;;;;;;;29.02;18.13;;;2.80;99.90;;;;;;5014704;28;20026;-79
2020/12/11 08:15:38;;;;;;;29.45;19.08;;;2.80;99.90;;;;;;5033775;28;20075;-78
2020/12/11 08:18:12;;;;;;;32.38;19.75;;;2.80;99.90;;;;;;5031195;28;20029;-79
2020/12/11 08:20:47;;;;;;;31.65;20.13;;;2.80;99.90;;;;;;5031524;28;20037;-78
2020/12/11 08:23:37;;;;;;;29.83;18.92;;;2.80;99.90;;;;;;5031068;28;20572;-79
2020/12/11 08:26:06;;;;;;;31.23;19.20;;;2.80;99.90;;;;;;5035801;28;20459;-79
2020/12/11 08:28:34;;;;;;;31.17;19.38;;;2.80;99.90;;;;;;5036245;28;20462;-78
2020/12/11 08:31:26;;;;;;;31.33;19.27;;;2.80;99.90;;;;;;5033041;28;20030;-79
2020/12/11 08:34:14;;;;;;;29.88;19.10;;;2.90;99.90;;;;;;5034946;28;20037;-79
2020/12/11 08:36:46;;;;;;;33.78;20.70;;;2.80;99.90;;;;;;5030680;28;20029;-79
2020/12/11 08:39:28;;;;;;;31.75;19.35;;;2.80;99.90;;;;;;5034704;28;20033;-79
2020/12/11 08:48:12;;;;;;;32.92;19.42;;;2.80;99.90;;;;;;5032050;28;20030;-79
2020/12/11 08:50:19;;;;;;;30.38;18.45;;;2.80;99.90;;;;;;5030227;28;20048;-78
2020/12/11 08:52:45;;;;;;;30.38;18.92;;;2.90;99.90;;;;;;5031602;28;20055;-79
2020/12/11 08:55:13;;;;;;;31.80;20.13;;;2.90;99.90;;;;;;5032696;28;20606;-78
2020/12/11 08:57:41;;;;;;;28.88;19.08;;;2.90;99.90;;;;;;5033888;28;20087;-79
2020/12/11 09:00:09;;;;;;;30.08;19.25;;;2.90;99.90;;;;;;5031825;28;20018;-79
2020/12/11 09:02:35;;;;;;;29.75;18.52;;;2.90;99.90;;;;;;5031861;28;20044;-78
2020/12/11 09:05:00;;;;;;;30.17;19.88;;;3.00;99.90;;;;;;5034176;28;20037;-78
2020/12/11 09:07:26;;;;;;;32.83;20.60;;;3.00;99.90;;;;;;5034846;28;20041;-78
2020/12/11 09:09:54;;;;;;;33.13;20.83;;;3.00;99.90;;;;;;5036357;28;20026;-78
2020/12/11 09:12:22;;;;;;;34.70;22.05;;;3.10;99.90;;;;;;5037685;28;20048;-78
2020/12/11 09:14:48;;;;;;;31.73;19.70;;;3.10;99.90;;;;;;5033524;28;20025;-78
2020/12/11 09:17:13;;;;;;;35.95;20.83;;;3.10;99.90;;;;;;5034437;28;20032;-78
2020/12/11 09:19:41;;;;;;;33.15;20.60;;;3.10;99.90;;;;;;5031232;28;20028;-78
2020/12/11 09:22:07;;;;;;;34.28;20.90;;;3.20;99.90;;;;;;5031630;28;20467;-78
2020/12/11 09:24:35;;;;;;;34.45;21.80;;;3.20;99.90;;;;;;5027363;28;20021;-78
2020/12/11 09:27:05;;;;;;;32.08;20.45;;;3.20;99.90;;;;;;5018104;28;20137;-78
2020/12/11 09:29:37;;;;;;;28.65;19.60;;;3.10;99.90;;;;;;5034857;28;20029;-78
2020/12/11 09:32:04;;;;;;;;;;;3.20;99.90;;;;;;5034477;28;20017;-78
2020/12/11 09:34:34;;;;;;;33.05;20.52;;;3.20;99.90;;;;;;5031030;28;19939;-78
2020/12/11 09:37:04;;;;;;;31.85;19.42;;;3.20;99.90;;;;;;5028188;28;20087;-78
2020/12/11 09:39:30;;;;;;;33.10;20.38;;;3.30;99.90;;;;;;5031784;28;20024;-78
2020/12/11 09:42:19;;;;;;;32.88;20.73;;;3.30;99.90;;;;;;5029759;28;20029;-78
2020/12/11 09:50:12;;;;;;;29.85;19.77;;;3.40;99.90;;;;;;5029785;28;20413;-78
2020/12/11 09:52:55;;;;;;;32.45;20.63;;;3.40;99.90;;;;;;5032852;28;20132;-74
2020/12/11 09:55:24;;;;;;;32.90;19.70;;;3.40;99.90;;;;;;5028876;28;20348;-73
2020/12/11 09:57:50;;;;;;;36.22;22.25;;;3.40;99.90;;;;;;5030508;28;20048;-73
2020/12/11 10:00:18;;;;;;;29.63;20.13;;;3.50;99.90;;;;;;5031738;28;20466;-78
2020/12/11 10:02:58;;;;;;;28.92;18.70;;;3.50;99.90;;;;;;5030238;28;20493;-78
2020/12/11 10:05:26;;;;;;;31.75;19.92;;;3.50;99.90;;;;;;5033432;28;20052;-77
2020/12/11 10:07:53;;;;;;;31.90;19.52;;;3.50;99.90;;;;;;5033824;28;20152;-78
2020/12/11 10:10:18;;;;;;;30.80;19.85;;;3.60;99.90;;;;;;5030374;28;20033;-78
2020/12/11 10:12:47;;;;;;;32.45;20.90;;;3.60;99.90;;;;;;5031825;28;20041;-77
2020/12/11 10:15:13;;;;;;;28.95;19.85;;;3.60;99.90;;;;;;5028281;28;20026;-77
2020/12/11 10:17:39;;;;;;;30.33;18.35;;;3.60;99.90;;;;;;5045335;28;20645;-77
2020/12/11 10:20:07;;;;;;;31.70;20.70;;;3.70;99.90;;;;;;5058764;28;20034;-77
2020/12/11 10:22:33;;;;;;;31.20;19.70;;;3.70;99.90;;;;;;5032226;28;20120;-77
2020/12/11 10:25:01;;;;;;;30.33;19.73;;;3.70;99.90;;;;;;5030017;28;20121;-78
2020/12/11 10:27:27;;;;;;;30.73;19.52;;;3.70;99.90;;;;;;5025704;28;20025;-78
2020/12/11 10:29:58;;;;;;;30.50;19.00;;;3.80;99.90;;;;;;5029592;28;20037;-77
2020/12/11 10:32:23;;;;;;;27.77;18.63;;;3.70;99.90;;;;;;5028918;28;20064;-78
2020/12/11 10:34:51;;;;;;;30.27;19.20;;;3.70;99.90;;;;;;5028702;28;20578;-78
2020/12/11 10:37:20;;;;;;;29.95;19.65;;;3.80;99.90;;;;;;5032374;28;20036;-78
2020/12/11 10:39:45;;;;;;;27.60;18.42;;;3.70;99.90;;;;;;5031424;28;20032;-77
2020/12/11 10:42:11;;;;;;;28.95;18.35;;;3.70;99.90;;;;;;5032596;28;20036;-77
2020/12/11 10:44:37;;;;;;;28.70;18.60;;;3.70;99.90;;;;;;5031350;28;20041;-78
2020/12/11 10:47:05;;;;;;;29.70;19.05;;;3.70;99.90;;;;;;5028997;28;20556;-78
2020/12/11 10:49:32;;;;;;;32.83;20.23;;;3.80;99.90;;;;;;5028404;28;20442;-78
2020/12/11 10:52:00;;;;;;;27.38;18.38;;;3.80;99.90;;;;;;5033503;28;20046;-78
2020/12/11 10:54:29;;;;;;;33.45;20.23;;;3.80;99.90;;;;;;5031603;28;20033;-77
2020/12/11 10:56:57;;;;;;;32.70;20.40;;;3.80;99.90;;;;;;5028918;28;20028;-77
2020/12/11 10:59:23;;;;;;;31.02;19.88;;;3.80;99.90;;;;;;5028147;28;20109;-77
2020/12/11 11:01:52;;;;;;;30.10;19.02;;;3.70;99.90;;;;;;5029274;28;20518;-78
2020/12/11 11:04:21;;;;;;;29.80;17.80;;;3.80;99.90;;;;;;5031768;28;20033;-77
2020/12/11 11:06:56;;;;;;;29.63;18.90;;;3.80;99.90;;;;;;5028503;28;20497;-77
2020/12/11 11:18:14;;;;;;;31.00;19.63;;;3.70;99.90;;;;;;5015423;28;20039;-77
2020/12/11 11:28:04;;;;;;;33.00;20.80;;;3.70;99.90;;;;;;5033653;28;20033;-77
2020/12/11 11:30:33;;;;;;;29.60;18.92;;;3.70;99.90;;;;;;5003848;28;20036;-77
2020/12/11 11:32:59;;;;;;;32.92;19.88;;;3.60;99.90;;;;;;5032878;28;20101;-77
2020/12/11 11:35:25;;;;;;;32.97;19.67;;;3.60;99.90;;;;;;5022215;28;20132;-77
2020/12/11 11:37:50;;;;;;;35.72;21.50;;;3.60;99.90;;;;;;5034627;28;20087;-77
2020/12/11 11:40:16;;;;;;;34.60;20.25;;;3.60;99.90;;;;;;5028840;28;20057;-77
2020/12/11 11:42:42;;;;;;;33.45;20.08;;;3.50;99.90;;;;;;5032152;28;20037;-77
2020/12/11 11:45:19;;;;;;;34.67;20.80;;;3.60;99.90;;;;;;5031511;28;20157;-77
2020/12/11 11:47:50;;;;;;;41.17;24.20;;;3.60;99.90;;;;;;5032326;28;20735;-77
2020/12/11 11:53:05;;;;;;;33.67;19.83;;;3.60;99.90;;;;;;5032346;28;20523;-77
2020/12/11 11:55:33;;;;;;;37.05;22.83;;;3.60;99.90;;;;;;5037278;28;20619;-77
2020/12/11 11:58:03;;;;;;;36.53;22.30;;;3.60;99.90;;;;;;5038350;28;20040;-77
2020/12/11 12:00:29;;;;;;;42.90;25.20;;;3.60;99.90;;;;;;5033157;28;20385;-77
2020/12/11 12:02:57;;;;;;;41.40;24.02;;;3.60;99.90;;;;;;5032040;28;20128;-77
2020/12/11 12:05:22;;;;;;;41.00;25.02;;;3.60;99.90;;;;;;5035014;28;20025;-78
2020/12/11 12:07:50;;;;;;;39.58;24.17;;;3.70;99.90;;;;;;5036577;28;20032;-77
2020/12/11 12:10:18;;;;;;;42.28;24.73;;;3.60;99.90;;;;;;5030380;28;20437;-77
2020/12/11 12:12:46;;;;;;;40.38;24.85;;;3.60;99.90;;;;;;5032725;28;20132;-77
2020/12/11 12:15:18;;;;;;;35.63;22.35;;;3.70;99.90;;;;;;5036218;28;20082;-77
2020/12/11 12:18:08;;;;;;;38.20;22.83;;;3.70;99.90;;;;;;5040663;28;20029;-77
2020/12/11 12:28:56;;;;;;;33.72;21.30;;;3.80;99.90;;;;;;5031775;28;20086;-77
2020/12/11 12:31:38;;;;;;;33.88;20.73;;;3.80;99.90;;;;;;5035955;28;20538;-77
2020/12/11 12:44:33;;;;;;;37.47;22.73;;;3.90;99.90;;;;;;5032048;28;20032;-77
2020/12/11 12:47:01;;;;;;;34.70;20.92;;;4.00;99.90;;;;;;5035063;28;20029;-78
2020/12/11 12:49:31;;;;;;;37.20;23.65;;;4.00;99.90;;;;;;5029955;28;20501;-77
2020/12/11 12:51:57;;;;;;;34.88;21.55;;;4.00;99.90;;;;;;5031795;28;20049;-77
2020/12/11 12:54:25;;;;;;;34.72;22.08;;;4.10;99.90;;;;;;5016501;28;20030;-77
2020/12/11 12:56:54;;;;;;;36.25;21.67;;;4.10;99.90;;;;;;5031194;28;20374;-77
2020/12/11 13:05:09;;;;;;;32.25;20.80;;;4.20;99.90;;;;;;5030581;28;20034;-77
2020/12/11 13:07:35;;;;;;;34.42;21.80;;;4.30;99.90;;;;;;5030619;28;20021;-77
2020/12/11 13:10:06;;;;;;;34.65;21.58;;;4.20;99.90;;;;;;5031290;28;20026;-77
2020/12/11 13:12:32;;;;;;;31.92;20.00;;;4.30;99.90;;;;;;5030457;28;20033;-78
2020/12/11 13:15:00;;;;;;;34.08;22.00;;;4.20;99.90;;;;;;5034718;28;20035;-77
2020/12/11 13:17:26;;;;;;;35.40;22.45;;;4.30;99.90;;;;;;5033474;28;20078;-77
2020/12/11 13:19:52;;;;;;;30.55;19.52;;;4.30;99.90;;;;;;5031542;28;20034;-77
2020/12/11 13:22:30;;;;;;;34.78;21.65;;;4.40;99.90;;;;;;5028824;28;20029;-77
2020/12/11 13:27:41;;;;;;;30.85;20.02;;;4.50;99.90;;;;;;5032700;28;20057;-77
2020/12/11 13:30:10;;;;;;;32.25;19.75;;;4.50;99.90;;;;;;5030813;28;20482;-77
2020/12/11 13:32:37;;;;;;;43.55;27.35;;;4.50;99.90;;;;;;5035571;28;20041;-77
2020/12/11 13:35:06;;;;;;;39.28;24.55;;;4.60;99.90;;;;;;5027953;28;20114;-77
2020/12/11 13:37:36;;;;;;;30.90;20.15;;;4.60;99.90;;;;;;5033833;28;20037;-77
2020/12/11 13:40:02;;;;;;;36.92;22.55;;;4.70;99.90;;;;;;5032870;28;20033;-77
2020/12/11 13:42:29;;;;;;;31.50;21.23;;;4.70;99.90;;;;;;5033853;28;20026;-77
2020/12/11 13:44:57;;;;;;;31.23;20.73;;;4.70;99.90;;;;;;5030717;28;20024;-77